Time;durP1;ratioP1;P1;durP2;ratioP2;P2;SDS_P1;SDS_P2;PMS_P1;PMS_P2;Temp;Humidity;BMP_temperature;BMP_pressure;BME280_temperature;BME280_humidity;BME280_pressure;Samples;Min_cycle;Max_cycle;Signal;HPM_P1;HPM_P2
2022/04/11 00:02:17;;;;;;;0.70;0.70;;;0.10;99.90;;;;;;4996939;28;20231;-84
2022/04/11 00:04:43;;;;;;;0.70;0.70;;;0.10;99.90;;;;;;4979372;28;20196;-85
2022/04/11 00:07:09;;;;;;;0.70;0.70;;;0.00;99.90;;;;;;4979597;28;20258;-85
2022/04/11 00:09:35;;;;;;;0.70;0.70;;;0.00;99.90;;;;;;4995345;28;20231;-85
2022/04/11 00:12:01;;;;;;;0.77;0.77;;;0.00;99.90;;;;;;4979580;28;20199;-84
2022/04/11 00:14:27;;;;;;;0.70;0.70;;;0.20;99.90;;;;;;4997288;28;20261;-85
2022/04/11 00:16:53;;;;;;;0.70;0.70;;;0.20;99.90;;;;;;4978765;28;20697;-85
2022/04/11 00:19:19;;;;;;;0.80;0.80;;;0.10;99.90;;;;;;4978257;28;20196;-85
2022/04/11 00:21:45;;;;;;;0.60;0.60;;;0.00;99.90;;;;;;4978376;28;20203;-84
2022/04/11 00:24:10;;;;;;;0.70;0.70;;;0.00;99.90;;;;;;4948255;28;20256;-85
2022/04/11 00:26:36;;;;;;;0.70;0.70;;;0.20;99.90;;;;;;4971671;28;20264;-85
2022/04/11 00:29:02;;;;;;;0.68;0.68;;;0.30;99.90;;;;;;4967791;28;20227;-85
2022/04/11 00:31:29;;;;;;;0.60;0.60;;;0.30;99.90;;;;;;4976534;28;20613;-84
2022/04/11 00:33:55;;;;;;;0.80;0.80;;;0.40;99.90;;;;;;4977064;28;20558;-85
2022/04/11 00:36:21;;;;;;;0.65;0.65;;;0.50;99.90;;;;;;4955826;29;20193;-84
2022/04/11 00:38:47;;;;;;;0.70;0.70;;;0.60;99.90;;;;;;4956326;29;20201;-85
2022/04/11 00:41:13;;;;;;;0.70;0.70;;;0.50;99.90;;;;;;4959764;28;20211;-84
2022/04/11 00:43:40;;;;;;;0.60;0.60;;;0.40;99.90;;;;;;4959381;28;20200;-85
2022/04/11 00:46:07;;;;;;;0.68;0.68;;;0.50;99.90;;;;;;4976928;28;20208;-85
2022/04/11 00:48:34;;;;;;;0.70;0.70;;;0.50;99.90;;;;;;4959179;28;20528;-83
2022/04/11 00:51:03;;;;;;;0.60;0.60;;;0.40;99.90;;;;;;4975260;28;20196;-84
2022/04/11 00:53:31;;;;;;;0.75;0.75;;;0.40;99.90;;;;;;4959155;28;20197;-84
2022/04/11 00:55:58;;;;;;;0.80;0.80;;;0.40;99.90;;;;;;4958133;28;20204;-84
2022/04/11 00:58:24;;;;;;;0.70;0.70;;;0.30;99.90;;;;;;4975895;28;20204;-83
2022/04/11 01:00:50;;;;;;;0.98;0.90;;;0.40;99.90;;;;;;4975435;28;20192;-80
2022/04/11 01:03:16;;;;;;;0.70;0.70;;;0.30;99.90;;;;;;4959308;28;20203;-81
2022/04/11 01:05:42;;;;;;;0.70;0.70;;;0.30;99.90;;;;;;4958973;28;20196;-81
2022/04/11 01:08:10;;;;;;;0.80;0.80;;;0.10;99.90;;;;;;4959008;28;20272;-81
2022/04/11 01:10:36;;;;;;;0.60;0.60;;;-0.10;99.90;;;;;;4958541;28;20236;-83
2022/04/11 01:13:02;;;;;;;0.70;0.70;;;-0.20;99.90;;;;;;4958955;28;20216;-83
2022/04/11 01:15:29;;;;;;;0.70;0.70;;;-0.30;99.90;;;;;;4959171;28;20615;-81
2022/04/11 01:17:55;;;;;;;0.70;0.70;;;-0.40;99.90;;;;;;4958775;28;20212;-81
2022/04/11 01:20:21;;;;;;;0.70;0.70;;;-0.50;99.90;;;;;;4975972;28;20200;-82
2022/04/11 01:22:47;;;;;;;0.80;0.80;;;-0.60;99.90;;;;;;4976037;28;20271;-82
2022/04/11 01:25:15;;;;;;;0.80;0.80;;;-0.60;99.90;;;;;;4953087;28;20262;-81
2022/04/11 01:27:42;;;;;;;0.70;0.70;;;-0.60;99.90;;;;;;4974480;28;20196;-81
2022/04/11 01:30:10;;;;;;;0.60;0.60;;;-0.60;99.90;;;;;;4974780;28;20204;-81
2022/04/11 01:32:40;;;;;;;0.70;0.70;;;-0.60;99.90;;;;;;4958290;28;20207;-81
2022/04/11 01:35:21;;;;;;;0.60;0.60;;;-0.50;99.90;;;;;;4974949;28;20717;-81
2022/04/11 01:37:47;;;;;;;0.70;0.70;;;-0.60;99.90;;;;;;4942616;28;20311;-81
2022/04/11 01:40:13;;;;;;;0.73;0.73;;;-0.70;99.90;;;;;;4976877;28;20631;-81
2022/04/11 01:42:38;;;;;;;1.42;1.33;;;-0.70;99.90;;;;;;4974594;28;20678;-81
2022/04/11 01:45:09;;;;;;;0.70;0.70;;;-0.70;99.90;;;;;;4959738;28;20276;-81
2022/04/11 01:47:34;;;;;;;0.73;0.73;;;-0.70;99.90;;;;;;4974388;28;20207;-81
2022/04/11 01:50:00;;;;;;;0.60;0.60;;;-0.70;99.90;;;;;;4990326;28;20196;-81
2022/04/11 01:52:26;;;;;;;0.70;0.70;;;-0.70;99.90;;;;;;4990230;28;20196;-81
2022/04/11 01:54:52;;;;;;;0.80;0.80;;;-0.70;99.90;;;;;;4990354;28;20562;-81
2022/04/11 01:57:17;;;;;;;0.70;0.70;;;-0.70;99.90;;;;;;4975440;28;20212;-82
2022/04/11 01:59:43;;;;;;;0.60;0.60;;;-0.70;99.90;;;;;;4990087;28;20228;-82
2022/04/11 02:02:08;;;;;;;0.68;0.68;;;-0.80;99.90;;;;;;4978219;28;20200;-82
2022/04/11 02:04:34;;;;;;;0.73;0.73;;;-0.90;99.90;;;;;;4973143;28;20214;-82
2022/04/11 02:07:00;;;;;;;0.70;0.70;;;-0.90;99.90;;;;;;4974581;28;20279;-81
2022/04/11 02:09:26;;;;;;;0.70;0.70;;;-1.00;99.90;;;;;;4973580;28;20691;-80
2022/04/11 02:11:52;;;;;;;0.80;0.80;;;-1.10;99.90;;;;;;4975262;28;20204;-82
2022/04/11 02:14:17;;;;;;;0.70;0.70;;;-1.10;99.90;;;;;;4974083;28;20215;-82
2022/04/11 02:16:43;;;;;;;0.60;0.60;;;-1.10;99.90;;;;;;4975106;28;20224;-81
2022/04/11 02:19:09;;;;;;;0.70;0.70;;;-1.20;99.90;;;;;;4975095;28;20334;-81
2022/04/11 02:21:35;;;;;;;0.60;0.60;;;-1.20;99.90;;;;;;4975302;28;20289;-81
2022/04/11 02:24:00;;;;;;;0.80;0.80;;;-1.20;99.90;;;;;;4975389;28;20192;-81
2022/04/11 02:26:26;;;;;;;0.70;0.70;;;-1.20;99.90;;;;;;4973782;28;20199;-82
2022/04/11 02:28:52;;;;;;;0.70;0.70;;;-1.10;99.90;;;;;;4974988;28;20192;-81
2022/04/11 02:31:17;;;;;;;0.70;0.70;;;-1.10;99.90;;;;;;4973890;28;20195;-81
2022/04/11 02:33:43;;;;;;;0.80;0.80;;;-1.10;99.90;;;;;;4956707;28;20238;-81
2022/04/11 02:36:09;;;;;;;0.80;0.80;;;-1.20;99.90;;;;;;4969439;28;20204;-81
2022/04/11 02:38:34;;;;;;;0.80;0.80;;;-1.30;99.90;;;;;;4956534;28;20222;-81
2022/04/11 02:41:00;;;;;;;0.80;0.80;;;-1.40;99.90;;;;;;4968033;28;20223;-81
2022/04/11 02:43:25;;;;;;;0.70;0.70;;;-1.30;99.90;;;;;;4972486;28;20613;-81
2022/04/11 02:45:51;;;;;;;0.80;0.80;;;-1.40;99.90;;;;;;4972658;28;20538;-81
2022/04/11 02:48:17;;;;;;;0.70;0.70;;;-1.40;99.90;;;;;;4974822;28;20295;-81
2022/04/11 02:50:43;;;;;;;0.80;0.80;;;-1.40;99.90;;;;;;4974719;28;20608;-81
2022/04/11 02:53:08;;;;;;;0.60;0.60;;;-1.40;99.90;;;;;;4974852;28;20200;-81
2022/04/11 02:55:34;;;;;;;0.70;0.70;;;-1.50;99.90;;;;;;4974481;28;20222;-81
2022/04/11 02:58:00;;;;;;;0.70;0.70;;;-1.50;99.90;;;;;;4973446;28;20223;-81
2022/04/11 03:00:25;;;;;;;0.80;0.80;;;-1.60;99.90;;;;;;4973053;28;20196;-82
2022/04/11 03:02:52;;;;;;;0.75;0.75;;;-1.50;99.90;;;;;;4971484;28;20208;-79
2022/04/11 03:05:17;;;;;;;0.70;0.70;;;-1.60;99.90;;;;;;4973763;28;20582;-80
2022/04/11 03:07:43;;;;;;;0.80;0.80;;;-1.60;99.90;;;;;;4972429;28;20227;-80
2022/04/11 03:10:09;;;;;;;0.70;0.70;;;-1.60;99.90;;;;;;4962482;28;20715;-80
2022/04/11 03:12:35;;;;;;;0.70;0.70;;;-1.60;99.90;;;;;;4966258;28;20570;-80
2022/04/11 03:15:01;;;;;;;0.70;0.70;;;-1.60;99.90;;;;;;4972335;28;20663;-80
2022/04/11 03:17:26;;;;;;;0.80;0.80;;;-1.60;99.90;;;;;;4965220;28;20280;-79
2022/04/11 03:19:52;;;;;;;0.80;0.80;;;-1.60;99.90;;;;;;4941511;29;20201;-79
2022/04/11 03:22:18;;;;;;;0.80;0.80;;;-1.60;99.90;;;;;;4957730;29;20279;-80
2022/04/11 03:24:43;;;;;;;0.80;0.80;;;-1.60;99.90;;;;;;4958845;29;20251;-81
2022/04/11 03:27:09;;;;;;;0.80;0.80;;;-1.60;99.90;;;;;;4941518;29;20208;-80
2022/04/11 03:29:35;;;;;;;0.77;0.77;;;-1.70;99.90;;;;;;4957425;29;20205;-80
2022/04/11 03:32:00;;;;;;;0.70;0.70;;;-1.70;99.90;;;;;;4941363;29;20572;-79
2022/04/11 03:34:26;;;;;;;0.70;0.70;;;-1.70;99.90;;;;;;4957189;29;20627;-80
2022/04/11 03:36:53;;;;;;;0.75;0.75;;;-1.80;99.90;;;;;;4941128;28;20676;-80
2022/04/11 03:39:19;;;;;;;0.70;0.70;;;-1.80;99.90;;;;;;4958643;29;20196;-80
2022/04/11 03:41:44;;;;;;;0.70;0.70;;;-1.80;99.90;;;;;;4957878;29;20197;-80
2022/04/11 03:44:10;;;;;;;0.77;0.77;;;-1.80;99.90;;;;;;4957277;29;20228;-81
2022/04/11 03:46:39;;;;;;;0.60;0.60;;;-1.80;99.90;;;;;;4957263;29;20201;-81
2022/04/11 03:49:06;;;;;;;0.70;0.70;;;-1.90;99.90;;;;;;4957185;29;20212;-81
2022/04/11 03:51:32;;;;;;;0.77;0.77;;;-1.90;99.90;;;;;;4956714;29;20255;-81
2022/04/11 03:53:58;;;;;;;0.80;0.80;;;-1.90;99.90;;;;;;4940989;29;20207;-80
2022/04/11 03:56:24;;;;;;;0.80;0.80;;;-1.90;99.90;;;;;;4956855;29;20204;-81
2022/04/11 03:58:49;;;;;;;0.80;0.80;;;-1.90;99.90;;;;;;4957041;29;20216;-80
2022/04/11 04:01:15;;;;;;;0.80;0.80;;;-2.00;99.90;;;;;;4958253;29;20221;-81
2022/04/11 04:03:41;;;;;;;0.80;0.80;;;-2.00;99.90;;;;;;4958087;29;20197;-81
2022/04/11 04:06:07;;;;;;;0.80;0.80;;;-2.00;99.90;;;;;;4941047;29;20640;-80
2022/04/11 04:08:33;;;;;;;0.80;0.80;;;-2.00;99.90;;;;;;4967892;28;20207;-80
2022/04/11 04:10:59;;;;;;;0.80;0.80;;;-2.00;99.90;;;;;;4993753;28;20590;-80
2022/04/11 04:13:25;;;;;;;0.80;0.80;;;-2.00;99.90;;;;;;4972831;28;20232;-83
2022/04/11 04:15:50;;;;;;;0.80;0.80;;;-2.10;99.90;;;;;;4959438;28;20714;-81
2022/04/11 04:18:16;;;;;;;0.80;0.80;;;-1.90;99.90;;;;;;4977031;28;20236;-82
2022/04/11 04:20:42;;;;;;;0.80;0.80;;;-1.80;99.90;;;;;;4977017;28;20196;-81
2022/04/11 04:23:08;;;;;;;0.90;0.90;;;-1.80;99.90;;;;;;4959764;28;20586;-82
2022/04/11 04:25:34;;;;;;;0.80;0.80;;;-1.70;99.90;;;;;;4977108;28;20545;-82
2022/04/11 04:28:01;;;;;;;0.70;0.70;;;-1.80;99.90;;;;;;4963421;28;20274;-81
2022/04/11 04:30:28;;;;;;;0.80;0.80;;;-1.80;99.90;;;;;;4994052;28;20611;-81
2022/04/11 04:32:55;;;;;;;0.88;0.88;;;-1.80;99.90;;;;;;4966000;28;20694;-80
2022/04/11 04:35:20;;;;;;;0.80;0.80;;;-1.80;99.90;;;;;;4976637;28;20694;-81
2022/04/11 04:37:46;;;;;;;0.77;0.77;;;-1.90;99.90;;;;;;4959626;28;20216;-80
2022/04/11 04:40:12;;;;;;;0.70;0.70;;;-2.00;99.90;;;;;;4975485;28;20196;-81
2022/04/11 04:42:38;;;;;;;0.70;0.70;;;-2.00;99.90;;;;;;4959262;28;20206;-81
2022/04/11 04:45:05;;;;;;;0.80;0.80;;;-2.10;99.90;;;;;;4976762;28;20507;-82
2022/04/11 04:47:31;;;;;;;0.88;0.88;;;-2.30;99.90;;;;;;4974355;28;20196;-82
2022/04/11 04:49:57;;;;;;;0.80;0.80;;;-2.40;99.90;;;;;;4975596;28;20593;-82
2022/04/11 04:52:22;;;;;;;0.80;0.80;;;-2.50;99.90;;;;;;4957780;28;20303;-82
2022/04/11 04:54:48;;;;;;;0.75;0.75;;;-2.60;99.90;;;;;;4958251;28;20201;-82
2022/04/11 04:57:14;;;;;;;0.70;0.70;;;-2.70;99.90;;;;;;4958243;28;20650;-80
2022/04/11 04:59:39;;;;;;;0.82;0.82;;;-2.70;99.90;;;;;;4975339;28;20196;-81
2022/04/11 05:02:05;;;;;;;0.85;0.85;;;-2.70;99.90;;;;;;4957913;28;20232;-82
2022/04/11 05:04:31;;;;;;;0.80;0.80;;;-2.70;99.90;;;;;;4957700;28;20247;-81
2022/04/11 05:06:56;;;;;;;0.85;0.85;;;-2.50;99.90;;;;;;4975414;28;20192;-81
2022/04/11 05:09:22;;;;;;;0.70;0.70;;;-2.30;99.90;;;;;;4970436;28;20730;-81
2022/04/11 05:11:48;;;;;;;0.90;0.90;;;-2.10;99.90;;;;;;4938789;28;20618;-81
2022/04/11 05:14:13;;;;;;;0.70;0.70;;;-1.80;99.90;;;;;;4954944;29;20205;-81
2022/04/11 05:16:39;;;;;;;0.70;0.70;;;-1.60;99.90;;;;;;4938449;29;20212;-80
2022/04/11 05:19:05;;;;;;;0.70;0.70;;;-1.40;99.90;;;;;;4956663;29;20197;-81
2022/04/11 05:21:31;;;;;;;0.70;0.70;;;-1.30;99.90;;;;;;4970579;28;20243;-80
2022/04/11 05:23:57;;;;;;;0.73;0.73;;;-1.10;99.90;;;;;;4955532;28;20722;-80
2022/04/11 05:26:23;;;;;;;0.80;0.80;;;-1.00;99.90;;;;;;4939347;28;20197;-81
2022/04/11 05:28:51;;;;;;;0.75;0.75;;;-0.90;99.90;;;;;;4939171;29;20231;-81
2022/04/11 05:31:17;;;;;;;0.80;0.80;;;-0.70;99.90;;;;;;4956271;29;20200;-81
2022/04/11 05:33:43;;;;;;;0.80;0.80;;;-0.70;99.90;;;;;;4956309;29;20659;-80
2022/04/11 05:36:09;;;;;;;0.80;0.80;;;-0.60;99.90;;;;;;4951782;29;20628;-80
2022/04/11 05:38:35;;;;;;;0.65;0.65;;;-0.50;99.90;;;;;;4935763;29;20216;-81
2022/04/11 05:41:01;;;;;;;0.70;0.70;;;-0.50;99.90;;;;;;4937025;29;20280;-80
2022/04/11 05:43:26;;;;;;;0.70;0.70;;;-0.40;99.90;;;;;;4936957;29;20197;-81
2022/04/11 05:45:52;;;;;;;0.70;0.70;;;-0.30;99.90;;;;;;4937328;29;20197;-81
2022/04/11 05:48:18;;;;;;;0.70;0.70;;;-0.30;99.90;;;;;;4951790;29;20237;-81
2022/04/11 05:50:43;;;;;;;0.80;0.80;;;-0.20;99.90;;;;;;4951224;29;20240;-80
2022/04/11 05:53:09;;;;;;;0.80;0.80;;;-0.20;99.90;;;;;;4936552;29;20198;-81
2022/04/11 05:55:35;;;;;;;0.70;0.70;;;-0.10;99.90;;;;;;4936400;29;20600;-81
2022/04/11 05:58:00;;;;;;;0.60;0.60;;;0.20;99.90;;;;;;4935493;29;20612;-81
2022/04/11 06:00:26;;;;;;;0.60;0.60;;;0.50;99.90;;;;;;4954432;29;20189;-81
2022/04/11 06:02:52;;;;;;;0.68;0.68;;;0.80;99.90;;;;;;4954660;29;20197;-80
2022/04/11 06:05:17;;;;;;;0.70;0.70;;;0.90;99.90;;;;;;4955833;29;20585;-81
2022/04/11 06:07:44;;;;;;;0.80;0.80;;;1.10;99.90;;;;;;4955813;28;20644;-80
2022/04/11 06:10:10;;;;;;;0.70;0.70;;;1.40;99.90;;;;;;4948305;28;20235;-81
2022/04/11 06:12:37;;;;;;;0.70;0.70;;;1.70;99.90;;;;;;4974796;28;20674;-81
2022/04/11 06:15:04;;;;;;;0.70;0.70;;;1.90;99.90;;;;;;4975029;28;20736;-81
2022/04/11 06:17:30;;;;;;;0.70;0.70;;;2.00;99.90;;;;;;4957476;28;20212;-81
2022/04/11 06:19:57;;;;;;;0.77;0.77;;;2.20;99.90;;;;;;4974954;28;20200;-81
2022/04/11 06:22:23;;;;;;;0.90;0.90;;;2.20;99.90;;;;;;4969541;28;20219;-80
2022/04/11 06:24:50;;;;;;;0.70;0.70;;;2.40;99.90;;;;;;4973610;28;20593;-81
2022/04/11 06:27:17;;;;;;;0.68;0.68;;;2.70;99.90;;;;;;4972785;28;20553;-81
2022/04/11 06:29:44;;;;;;;0.68;0.68;;;3.10;99.90;;;;;;4974983;28;20196;-80
2022/04/11 06:32:10;;;;;;;0.60;0.60;;;3.50;99.90;;;;;;4974951;28;20682;-80
2022/04/11 06:34:36;;;;;;;0.70;0.70;;;3.80;99.90;;;;;;4975004;28;20196;-80
2022/04/11 06:37:04;;;;;;;0.70;0.70;;;3.80;99.90;;;;;;4976065;28;20200;-80
2022/04/11 06:39:30;;;;;;;0.70;0.70;;;3.60;99.90;;;;;;4957310;28;20200;-80
2022/04/11 06:41:56;;;;;;;0.80;0.80;;;3.70;99.90;;;;;;4965436;28;20290;-80
2022/04/11 06:44:22;;;;;;;0.60;0.60;;;3.90;99.90;;;;;;4974253;28;20282;-80
2022/04/11 06:46:48;;;;;;;0.57;0.57;;;4.10;99.90;;;;;;4973385;28;20207;-81
2022/04/11 06:49:14;;;;;;;0.70;0.70;;;4.20;99.90;;;;;;4974817;28;20188;-81
2022/04/11 06:51:40;;;;;;;0.80;0.80;;;4.30;99.90;;;;;;4974565;28;20274;-80
2022/04/11 06:54:06;;;;;;;0.70;0.70;;;4.40;99.90;;;;;;4972896;28;20235;-81
2022/04/11 06:56:32;;;;;;;0.82;0.82;;;4.40;99.90;;;;;;4968991;28;20185;-80
2022/04/11 06:58:57;;;;;;;0.63;0.63;;;4.50;99.90;;;;;;4938055;29;20217;-80
2022/04/11 07:01:23;;;;;;;0.70;0.70;;;4.70;99.90;;;;;;4952758;29;20201;-80
2022/04/11 07:03:51;;;;;;;0.70;0.70;;;4.90;99.90;;;;;;4974029;28;20210;-80
2022/04/11 07:06:17;;;;;;;0.60;0.60;;;5.00;99.90;;;;;;4957663;28;20223;-80
2022/04/11 07:08:42;;;;;;;0.70;0.70;;;5.20;99.90;;;;;;4974507;28;20192;-80
2022/04/11 07:11:08;;;;;;;0.80;0.80;;;5.30;99.90;;;;;;4953598;29;20240;-80
2022/04/11 07:13:34;;;;;;;0.50;0.50;;;5.50;99.90;;;;;;4954343;28;20247;-80
2022/04/11 07:16:00;;;;;;;0.68;0.68;;;5.60;99.90;;;;;;4956937;28;20350;-79
2022/04/11 07:18:27;;;;;;;1.00;1.00;;;5.60;99.90;;;;;;4973956;28;20240;-80
2022/04/11 07:20:56;;;;;;;0.70;0.70;;;5.50;99.90;;;;;;4973263;28;20235;-80
2022/04/11 07:23:23;;;;;;;0.70;0.70;;;5.60;99.70;;;;;;4974348;28;20199;-79
2022/04/11 07:25:49;;;;;;;0.60;0.60;;;5.60;99.10;;;;;;4957224;28;20576;-80
2022/04/11 07:28:14;;;;;;;0.70;0.70;;;5.80;99.90;;;;;;4974444;28;20200;-79
2022/04/11 07:30:40;;;;;;;0.80;0.80;;;5.90;97.60;;;;;;4973106;28;20204;-80
2022/04/11 07:33:08;;;;;;;0.60;0.60;;;6.00;97.60;;;;;;4973228;28;20208;-80
2022/04/11 07:35:34;;;;;;;0.65;0.65;;;6.20;97.80;;;;;;4973330;28;20224;-79
2022/04/11 07:38:01;;;;;;;0.70;0.70;;;6.20;96.80;;;;;;4972720;28;20248;-80
2022/04/11 07:40:28;;;;;;;0.70;0.70;;;6.30;96.90;;;;;;4972894;28;20566;-79
2022/04/11 07:42:53;;;;;;;0.73;0.73;;;6.20;96.80;;;;;;4974283;28;20730;-78
2022/04/11 07:45:20;;;;;;;0.50;0.50;;;6.20;95.80;;;;;;4972679;28;20200;-79
2022/04/11 07:47:46;;;;;;;0.70;0.70;;;6.30;96.60;;;;;;4973389;28;20204;-80
2022/04/11 07:50:12;;;;;;;0.63;0.63;;;6.30;95.00;;;;;;4974539;28;20275;-80
2022/04/11 07:52:39;;;;;;;0.60;0.60;;;6.40;94.50;;;;;;4974569;28;20197;-81
2022/04/11 07:55:06;;;;;;;0.70;0.70;;;6.60;95.10;;;;;;4976138;28;20286;-80
2022/04/11 07:57:32;;;;;;;0.70;0.70;;;6.70;95.80;;;;;;4993425;28;20311;-81
2022/04/11 07:59:58;;;;;;;0.70;0.70;;;6.80;94.20;;;;;;4993533;28;20686;-81
2022/04/11 08:02:25;;;;;;;0.80;0.80;;;6.90;92.90;;;;;;4975876;28;20562;-81
2022/04/11 08:04:52;;;;;;;0.70;0.70;;;7.10;93.30;;;;;;4976641;28;20193;-81
2022/04/11 08:07:17;;;;;;;0.70;0.70;;;7.30;92.20;;;;;;4997136;28;20377;-82
2022/04/11 08:09:43;;;;;;;0.60;0.60;;;7.40;91.10;;;;;;4978672;28;20314;-82
2022/04/11 08:12:09;;;;;;;0.60;0.60;;;7.50;90.80;;;;;;4995111;28;20203;-82
2022/04/11 08:14:35;;;;;;;0.70;0.70;;;7.30;90.50;;;;;;4992543;28;20584;-83
2022/04/11 08:17:05;;;;;;;0.70;0.70;;;7.50;91.70;;;;;;4989391;28;20202;-82
2022/04/11 08:19:30;;;;;;;0.70;0.70;;;7.60;90.60;;;;;;4959835;28;20196;-82
2022/04/11 08:21:57;;;;;;;3.03;1.42;;;7.60;88.80;;;;;;4968049;28;20200;-82
2022/04/11 08:24:23;;;;;;;0.70;0.70;;;7.90;90.20;;;;;;4975879;28;20634;-82
2022/04/11 08:26:49;;;;;;;1.35;1.27;;;7.90;90.10;;;;;;4959742;28;20287;-83
2022/04/11 08:29:17;;;;;;;1.00;1.00;;;8.00;89.20;;;;;;4959823;28;20238;-83
2022/04/11 08:31:43;;;;;;;0.80;0.80;;;8.10;88.70;;;;;;4976920;28;20341;-82
2022/04/11 08:34:09;;;;;;;0.80;0.80;;;8.20;88.30;;;;;;4975897;28;20694;-82
2022/04/11 08:36:35;;;;;;;0.60;0.60;;;8.30;88.60;;;;;;4975541;28;20200;-82
2022/04/11 08:39:01;;;;;;;0.70;0.70;;;8.50;86.80;;;;;;4975683;28;20235;-82
2022/04/11 08:41:36;;;;;;;0.60;0.60;;;8.60;87.20;;;;;;4975787;28;20291;-82
2022/04/11 08:44:07;;;;;;;0.57;0.57;;;8.90;86.70;;;;;;4976977;28;20207;-82
2022/04/11 08:46:34;;;;;;;0.60;0.60;;;9.00;84.70;;;;;;4975349;28;20565;-82
2022/04/11 08:49:02;;;;;;;4.53;1.15;;;9.10;83.60;;;;;;4958991;28;20203;-83
2022/04/11 08:51:31;;;;;;;0.70;0.70;;;9.10;80.70;;;;;;4974357;28;20216;-82
2022/04/11 08:54:01;;;;;;;0.55;0.55;;;9.10;79.40;;;;;;4975261;28;20684;-82
2022/04/11 08:56:31;;;;;;;0.70;0.70;;;9.10;81.10;;;;;;4991388;28;20207;-82
2022/04/11 08:58:57;;;;;;;0.60;0.60;;;9.30;82.80;;;;;;4991461;28;20220;-83
2022/04/11 09:01:23;;;;;;;0.60;0.60;;;9.40;79.80;;;;;;4991182;28;20195;-82
2022/04/11 09:03:49;;;;;;;0.60;0.60;;;9.40;80.00;;;;;;4994848;28;20203;-81
2022/04/11 09:06:17;;;;;;;0.70;0.70;;;9.40;79.70;;;;;;4994762;28;20196;-83
2022/04/11 09:08:51;;;;;;;0.63;0.63;;;9.30;78.60;;;;;;4985168;28;20694;-81
2022/04/11 09:11:46;;;;;;;0.60;0.60;;;9.70;79.30;;;;;;4955577;28;20323;-81
2022/04/11 09:14:12;;;;;;;0.63;0.63;;;10.10;78.00;;;;;;4953516;28;20603;-81
2022/04/11 09:16:51;;;;;;;0.60;0.60;;;10.30;80.30;;;;;;4956568;28;20209;-81
2022/04/11 09:19:25;;;;;;;0.50;0.50;;;10.50;76.40;;;;;;4939843;29;20232;-81
2022/04/11 09:21:53;;;;;;;0.50;0.50;;;10.50;76.10;;;;;;4939551;29;20197;-81
2022/04/11 09:24:19;;;;;;;0.55;0.55;;;10.60;75.10;;;;;;4956975;29;20196;-81
2022/04/11 09:26:47;;;;;;;0.50;0.50;;;10.70;74.30;;;;;;4956952;29;20660;-81
2022/04/11 09:29:15;;;;;;;0.60;0.60;;;10.60;73.60;;;;;;4939524;29;20292;-81
2022/04/11 09:31:40;;;;;;;0.60;0.60;;;10.70;73.40;;;;;;4939373;29;20229;-80
2022/04/11 09:34:20;;;;;;;0.60;0.60;;;11.10;72.90;;;;;;4957030;28;20225;-81
2022/04/11 09:36:50;;;;;;;0.50;0.50;;;11.20;71.40;;;;;;4953495;28;20576;-81
2022/04/11 09:39:23;;;;;;;0.63;0.63;;;11.20;74.50;;;;;;4974491;28;20192;-81
2022/04/11 09:41:50;;;;;;;0.60;0.60;;;11.50;70.70;;;;;;4974727;28;20203;-82
2022/04/11 09:44:30;;;;;;;0.60;0.60;;;11.60;69.50;;;;;;4974836;28;20204;-82
2022/04/11 09:46:59;;;;;;;0.50;0.50;;;11.40;68.60;;;;;;4960799;28;20215;-81
2022/04/11 09:49:26;;;;;;;1.40;0.88;;;11.70;70.50;;;;;;4974096;28;20215;-82
2022/04/11 09:52:26;;;;;;;0.60;0.60;;;11.90;70.10;;;;;;4985404;28;20207;-82
2022/04/11 09:54:57;;;;;;;0.60;0.60;;;12.00;67.80;;;;;;4983692;28;20211;-82
2022/04/11 09:57:26;;;;;;;0.70;0.70;;;12.50;67.20;;;;;;4977446;28;20215;-80
2022/04/11 09:59:53;;;;;;;0.50;0.50;;;13.10;69.40;;;;;;4994474;28;20203;-83
2022/04/11 10:02:21;;;;;;;0.60;0.60;;;13.40;63.40;;;;;;4976315;28;20200;-83
2022/04/11 10:04:47;;;;;;;0.50;0.50;;;13.40;64.30;;;;;;4993575;28;20287;-83
2022/04/11 10:07:13;;;;;;;0.40;0.40;;;13.50;65.30;;;;;;4977625;28;20703;-82
2022/04/11 10:09:40;;;;;;;0.40;0.40;;;13.60;65.10;;;;;;4984158;28;20240;-83
2022/04/11 10:12:07;;;;;;;6.43;1.50;;;13.50;59.90;;;;;;4974005;28;20208;-83
2022/04/11 10:14:34;;;;;;;2.55;0.98;;;13.50;60.90;;;;;;4957700;28;20203;-83
2022/04/11 10:17:01;;;;;;;0.70;0.70;;;13.50;62.50;;;;;;4974047;28;20203;-83
2022/04/11 10:19:29;;;;;;;0.57;0.57;;;13.90;61.00;;;;;;4972805;28;20196;-84
2022/04/11 10:22:02;;;;;;;0.40;0.40;;;14.10;58.40;;;;;;4974262;28;20198;-83
2022/04/11 10:24:40;;;;;;;0.40;0.40;;;13.80;61.20;;;;;;4972688;28;20572;-82
2022/04/11 10:27:25;;;;;;;0.50;0.50;;;13.60;56.90;;;;;;4972288;28;20250;-82
2022/04/11 10:29:53;;;;;;;0.40;0.40;;;13.60;59.90;;;;;;4972820;28;20204;-82
2022/04/11 10:32:23;;;;;;;0.43;0.43;;;13.40;58.80;;;;;;4972692;28;20555;-81
2022/04/11 10:34:55;;;;;;;0.43;0.43;;;13.10;60.70;;;;;;4973855;28;20577;-81
2022/04/11 10:37:26;;;;;;;0.40;0.40;;;13.60;59.10;;;;;;4974746;28;20710;-82
2022/04/11 10:39:53;;;;;;;0.43;0.43;;;13.70;57.70;;;;;;4974065;28;20607;-82
2022/04/11 10:42:22;;;;;;;0.70;0.68;;;14.30;57.90;;;;;;4973532;28;20560;-83
2022/04/11 10:44:54;;;;;;;0.38;0.38;;;14.50;58.90;;;;;;4992126;28;20422;-82
2022/04/11 10:47:30;;;;;;;0.40;0.40;;;14.80;58.80;;;;;;4985621;28;20203;-82
2022/04/11 10:49:55;;;;;;;0.85;0.65;;;14.30;55.60;;;;;;4994219;28;20572;-81
2022/04/11 10:52:31;;;;;;;0.50;0.50;;;13.20;56.90;;;;;;4991911;28;20203;-82
2022/04/11 10:55:18;;;;;;;0.50;0.50;;;13.20;59.30;;;;;;4993338;28;20666;-81
2022/04/11 10:57:52;;;;;;;0.98;0.70;;;13.40;58.40;;;;;;4994135;28;20207;-82
2022/04/11 11:00:32;;;;;;;0.98;0.93;;;13.80;61.70;;;;;;4976509;28;20686;-81
2022/04/11 11:03:01;;;;;;;1.42;0.93;;;13.00;58.10;;;;;;4982634;28;20621;-81
2022/04/11 11:05:40;;;;;;;0.50;0.50;;;12.50;58.80;;;;;;4992938;28;20709;-83
2022/04/11 11:08:11;;;;;;;0.60;0.60;;;13.20;61.80;;;;;;4991910;28;20241;-81
2022/04/11 11:10:49;;;;;;;0.40;0.40;;;13.40;60.50;;;;;;4988560;28;20272;-83
2022/04/11 11:13:35;;;;;;;0.50;0.50;;;13.40;59.50;;;;;;4988748;28;20200;-81
2022/04/11 11:16:07;;;;;;;0.47;0.47;;;14.00;62.00;;;;;;4963117;28;20266;-81
2022/04/11 11:18:51;;;;;;;0.40;0.40;;;14.20;61.20;;;;;;4973382;28;20667;-82
2022/04/11 11:21:18;;;;;;;0.40;0.40;;;14.50;58.60;;;;;;4989065;28;20200;-82
2022/04/11 11:24:02;;;;;;;0.40;0.40;;;13.60;59.90;;;;;;4988868;28;20287;-81
2022/04/11 11:26:38;;;;;;;0.50;0.50;;;14.10;62.10;;;;;;4973484;28;20328;-81
2022/04/11 11:29:16;;;;;;;1.20;0.77;;;14.30;60.90;;;;;;4988545;28;20199;-81
2022/04/11 11:31:44;;;;;;;0.50;0.50;;;14.10;57.00;;;;;;4988365;28;20660;-81
2022/04/11 11:34:14;;;;;;;0.50;0.50;;;13.60;59.70;;;;;;4989721;28;20206;-82
2022/04/11 11:36:41;;;;;;;0.50;0.50;;;13.70;58.30;;;;;;4974425;28;20204;-82
2022/04/11 11:39:22;;;;;;;0.40;0.40;;;14.10;59.00;;;;;;4990459;28;20664;-82
2022/04/11 11:41:50;;;;;;;0.40;0.40;;;14.80;58.50;;;;;;4993112;28;20655;-83
2022/04/11 11:44:16;;;;;;;0.40;0.40;;;15.00;56.90;;;;;;4977948;28;20220;-81
2022/04/11 11:47:02;;;;;;;0.40;0.40;;;15.60;56.10;;;;;;4993142;28;20303;-81
2022/04/11 11:49:37;;;;;;;0.38;0.38;;;15.00;57.90;;;;;;4978045;28;20204;-80
2022/04/11 11:52:03;;;;;;;0.32;0.32;;;15.50;56.90;;;;;;4979788;28;20195;-81
2022/04/11 11:54:36;;;;;;;0.40;0.40;;;15.20;57.40;;;;;;4996138;28;20198;-81
2022/04/11 11:57:03;;;;;;;0.80;0.80;;;14.90;56.50;;;;;;4978544;28;20350;-81
2022/04/11 11:59:29;;;;;;;0.40;0.40;;;14.20;55.90;;;;;;4975157;28;20592;-81
2022/04/11 12:04:40;;;;;;;0.50;0.50;;;12.20;60.60;;;;;;4991002;28;20695;-81
2022/04/11 12:07:06;;;;;;;0.50;0.50;;;12.60;60.50;;;;;;4960290;28;20292;-81
2022/04/11 12:09:41;;;;;;;0.50;0.50;;;13.40;61.90;;;;;;4977289;28;20331;-81
2022/04/11 12:12:08;;;;;;;0.50;0.50;;;13.40;62.50;;;;;;4976108;28;20206;-81
2022/04/11 12:14:59;;;;;;;0.43;0.43;;;14.10;59.40;;;;;;4977300;28;20729;-81
2022/04/11 12:17:35;;;;;;;0.50;0.50;;;14.60;59.70;;;;;;4977250;28;20216;-82
2022/04/11 12:20:16;;;;;;;0.55;0.55;;;13.90;56.40;;;;;;4977646;28;20275;-82
2022/04/11 12:23:10;;;;;;;0.50;0.50;;;14.00;58.40;;;;;;4960480;28;20545;-82
2022/04/11 12:25:50;;;;;;;0.40;0.40;;;14.30;57.70;;;;;;4959526;28;20200;-81
2022/04/11 12:28:23;;;;;;;0.50;0.50;;;14.30;56.60;;;;;;4959946;28;20236;-82
2022/04/11 12:31:06;;;;;;;0.50;0.50;;;14.10;58.70;;;;;;4977024;28;20220;-83
2022/04/11 12:33:40;;;;;;;0.40;0.40;;;14.50;59.30;;;;;;4976906;28;20207;-82
2022/04/11 12:36:22;;;;;;;0.47;0.47;;;14.60;59.50;;;;;;4951346;29;20197;-82
2022/04/11 12:38:50;;;;;;;1.67;0.80;;;15.20;59.40;;;;;;4957698;29;20283;-82
2022/04/11 12:41:30;;;;;;;0.40;0.40;;;15.10;57.50;;;;;;4975317;28;20280;-82
2022/04/11 12:44:03;;;;;;;0.47;0.47;;;15.00;58.50;;;;;;4959621;28;20562;-82
2022/04/11 12:46:29;;;;;;;0.95;0.80;;;14.60;57.30;;;;;;4975405;28;20663;-81
2022/04/11 12:48:56;;;;;;;0.40;0.40;;;14.50;57.20;;;;;;4975690;28;20251;-82
2022/04/11 12:51:23;;;;;;;0.40;0.40;;;14.10;56.80;;;;;;4958230;28;20582;-82
2022/04/11 12:53:48;;;;;;;0.50;0.50;;;14.20;59.90;;;;;;4959261;28;20232;-82
2022/04/11 12:56:14;;;;;;;0.40;0.40;;;13.80;56.90;;;;;;4972217;28;20204;-82
2022/04/11 12:58:43;;;;;;;0.40;0.40;;;13.80;56.20;;;;;;4954682;28;20205;-82